createdAt,value
2023-07-18T00:00:34.148Z,1.33
2023-07-18T00:05:37.423Z,2.10
2023-07-18T00:10:39.870Z,1.33
2023-07-18T00:15:41.732Z,1.20
2023-07-18T00:20:43.265Z,1.40
2023-07-18T00:25:44.777Z,1.40
2023-07-18T00:30:46.234Z,1.57
2023-07-18T00:35:47.994Z,1.57
2023-07-18T00:40:50.241Z,1.70
2023-07-18T00:45:52.637Z,1.90
2023-07-18T00:50:54.114Z,1.60
2023-07-18T00:55:56.056Z,1.60
2023-07-18T01:00:57.488Z,1.60
2023-07-18T01:05:59.068Z,1.70
2023-07-18T01:11:05.078Z,2.00
2023-07-18T01:16:08.075Z,1.60
2023-07-18T01:21:12.026Z,2.07
2023-07-18T01:26:14.115Z,1.53
2023-07-18T01:31:15.685Z,1.83
2023-07-18T01:36:17.030Z,2.20
2023-07-18T01:41:18.485Z,1.90
2023-07-18T01:46:19.937Z,1.57
2023-07-18T01:51:21.696Z,2.13
2023-07-18T01:56:23.612Z,2.00
2023-07-18T02:01:26.543Z,1.80
2023-07-18T02:06:27.993Z,2.07
2023-07-18T02:11:29.376Z,1.90
2023-07-18T02:16:31.224Z,1.83
2023-07-18T02:21:32.658Z,2.00
2023-07-18T02:26:34.472Z,2.13
2023-07-18T02:31:35.922Z,2.13
2023-07-18T02:36:37.473Z,1.57
2023-07-18T02:41:38.632Z,1.70
2023-07-18T02:46:39.950Z,2.10
2023-07-18T02:51:41.086Z,1.80
2023-07-18T02:56:42.605Z,2.00
2023-07-18T03:01:44.925Z,1.40
2023-07-18T03:06:53.464Z,1.80
2023-07-18T03:11:54.961Z,1.73
2023-07-18T03:16:56.728Z,1.70
2023-07-18T03:21:58.561Z,2.03
2023-07-18T03:26:59.816Z,2.10
2023-07-18T03:32:01.458Z,1.90
2023-07-18T03:37:03.381Z,1.90
2023-07-18T03:42:04.997Z,1.73
2023-07-18T03:52:12.237Z,2.03
2023-07-18T03:57:14.561Z,2.10
2023-07-18T04:02:16.324Z,2.40
2023-07-18T04:07:19.194Z,1.83
2023-07-18T04:12:21.164Z,2.10
2023-07-18T04:17:23.485Z,2.03
2023-07-18T04:22:24.903Z,2.53
2023-07-18T04:27:27.789Z,2.10
2023-07-18T04:32:29.205Z,2.00
2023-07-18T04:37:30.700Z,2.20
2023-07-18T04:42:32.644Z,2.10
2023-07-18T04:47:34.056Z,2.27
2023-07-18T04:52:35.521Z,2.07
2023-07-18T04:57:36.900Z,2.30
2023-07-18T05:02:38.705Z,1.90
2023-07-18T05:07:41.609Z,2.27
2023-07-18T05:12:43.740Z,2.27
2023-07-18T05:17:46.039Z,2.17
2023-07-18T05:22:47.328Z,1.83
2023-07-18T05:27:48.613Z,1.93
2023-07-18T05:32:53.351Z,2.23
2023-07-18T05:37:55.256Z,2.40
2023-07-18T05:42:56.632Z,1.88
2023-07-18T05:47:57.913Z,2.10
2023-07-18T05:52:59.487Z,1.55
2023-07-18T05:58:00.702Z,1.50
2023-07-18T06:03:02.120Z,1.70
2023-07-18T06:08:04.209Z,1.73
2023-07-18T06:13:05.634Z,1.73
2023-07-18T06:18:06.901Z,1.35
2023-07-18T06:23:08.393Z,1.52
2023-07-18T06:28:09.593Z,1.20
2023-07-18T06:33:11.039Z,1.48
2023-07-18T06:38:14.314Z,1.38
2023-07-18T06:43:15.761Z,1.20
2023-07-18T06:48:17.788Z,1.42
2023-07-18T06:53:21.356Z,1.23
2023-07-18T06:58:22.681Z,1.40
2023-07-18T07:03:24.041Z,1.05
2023-07-18T07:08:25.536Z,1.08
2023-07-18T07:13:29.973Z,1.23
2023-07-18T07:18:31.998Z,1.25
2023-07-18T07:23:33.718Z,1.27
2023-07-18T07:28:36.074Z,1.13
2023-07-18T07:33:37.657Z,0.90
2023-07-18T07:38:39.158Z,1.58
2023-07-18T07:43:40.509Z,1.20
2023-07-18T07:48:41.741Z,1.00
2023-07-18T07:53:43.590Z,0.90
2023-07-18T07:58:51.657Z,1.10
2023-07-18T08:04:02.943Z,1.00
2023-07-18T08:09:05.338Z,1.00
2023-07-18T08:14:07.947Z,1.15
2023-07-18T08:19:09.690Z,0.80
2023-07-18T08:24:11.310Z,0.65
2023-07-18T08:29:12.699Z,0.73
2023-07-18T08:34:14.363Z,0.98
2023-07-18T08:39:16.942Z,0.80
2023-07-18T08:44:19.595Z,0.90
2023-07-18T08:49:24.114Z,0.88
2023-07-18T08:54:25.358Z,0.68
2023-07-18T08:59:27.762Z,0.70
2023-07-18T09:04:31.130Z,0.70
2023-07-18T09:09:32.533Z,0.70
2023-07-18T09:14:34.906Z,0.60
2023-07-18T09:19:43.376Z,0.55
2023-07-18T09:24:48.546Z,0.60
2023-07-18T09:29:50.299Z,0.60
2023-07-18T09:34:56.483Z,0.63
2023-07-18T09:39:57.943Z,0.88
2023-07-18T09:45:04.405Z,0.90
2023-07-18T09:50:14.165Z,0.52
2023-07-18T09:55:25.010Z,0.70
2023-07-18T10:00:27.144Z,0.70
2023-07-18T10:05:28.578Z,0.55
2023-07-18T10:10:29.918Z,0.60
2023-07-18T10:16:17.684Z,0.55
2023-07-18T10:21:44.253Z,0.80
2023-07-18T10:27:01.065Z,0.80
2023-07-18T10:32:30.133Z,0.70
2023-07-18T10:37:31.616Z,0.98
2023-07-18T10:42:35.184Z,0.80
2023-07-18T10:47:38.130Z,0.75
2023-07-18T10:52:41.704Z,0.80
2023-07-18T10:57:43.095Z,0.90
2023-07-18T11:02:45.054Z,0.90
2023-07-18T11:07:48.582Z,0.90
2023-07-18T11:12:52.698Z,0.93
2023-07-18T11:17:54.343Z,0.95
2023-07-18T11:22:56.560Z,1.13
2023-07-18T11:27:57.916Z,1.08
2023-07-18T11:32:59.181Z,1.08
2023-07-18T11:38:00.357Z,1.40
2023-07-18T11:43:02.275Z,1.17
2023-07-18T11:48:05.082Z,1.05
2023-07-18T11:53:06.560Z,1.25
2023-07-18T11:58:10.488Z,1.38
2023-07-18T12:03:11.922Z,1.23
2023-07-18T12:08:14.082Z,1.02
2023-07-18T12:13:16.654Z,1.50
2023-07-18T12:18:18.751Z,1.40
2023-07-18T12:23:19.920Z,1.30
2023-07-18T12:28:21.490Z,1.75
2023-07-18T12:33:23.931Z,1.48
2023-07-18T12:38:26.887Z,1.50
2023-07-18T12:43:29.682Z,1.70
2023-07-18T12:48:50.673Z,1.73
2023-07-18T12:53:52.988Z,1.60
2023-07-18T12:58:54.322Z,1.80
2023-07-18T13:03:55.668Z,1.52
2023-07-18T13:08:57.253Z,1.55
2023-07-18T13:13:58.548Z,1.38
2023-07-18T13:18:59.813Z,1.67
2023-07-18T13:24:01.185Z,1.55
2023-07-18T13:29:04.025Z,1.50
2023-07-18T13:34:07.077Z,1.52
2023-07-18T13:39:09.077Z,1.65
2023-07-18T13:44:10.392Z,1.83
2023-07-18T13:49:11.691Z,1.63
2023-07-18T13:54:13.115Z,1.55
2023-07-18T13:59:14.339Z,1.80
2023-07-18T14:04:15.923Z,1.75
2023-07-18T14:09:17.412Z,1.55
2023-07-18T14:14:18.802Z,1.85
2023-07-18T14:19:20.232Z,1.70
2023-07-18T14:24:21.651Z,1.98
2023-07-18T14:29:24.150Z,1.80
2023-07-18T14:34:26.146Z,1.60
2023-07-18T14:39:27.678Z,1.63
2023-07-18T14:44:29.523Z,2.15
2023-07-18T14:49:30.720Z,2.03
2023-07-18T14:54:32.041Z,1.83
2023-07-18T14:59:33.344Z,1.80
2023-07-18T15:04:35.585Z,1.83
2023-07-18T15:09:36.776Z,1.55
2023-07-18T15:14:38.095Z,1.52
2023-07-18T15:19:39.257Z,2.35
2023-07-18T15:24:40.629Z,1.73
2023-07-18T15:29:43.532Z,1.58
2023-07-18T15:34:44.942Z,2.85
2023-07-18T15:39:46.596Z,1.85
2023-07-18T15:44:48.266Z,1.58
2023-07-18T15:49:49.635Z,1.85
2023-07-18T15:54:51.100Z,1.75
2023-07-18T15:59:52.431Z,1.50
2023-07-18T16:04:53.697Z,1.88
2023-07-18T16:09:58.526Z,1.52
2023-07-18T16:14:59.822Z,1.65
2023-07-18T16:20:01.001Z,1.98
2023-07-18T16:25:04.932Z,2.03
2023-07-18T16:30:06.912Z,2.08
2023-07-18T16:35:08.866Z,1.38
2023-07-18T16:40:10.526Z,1.50
2023-07-18T16:45:11.949Z,1.40
2023-07-18T16:50:13.272Z,1.55
2023-07-18T16:55:14.522Z,1.35
2023-07-18T17:00:17.446Z,1.58
2023-07-18T17:05:18.952Z,1.73
2023-07-18T17:10:20.295Z,1.65
2023-07-18T17:15:21.766Z,1.90
2023-07-18T17:20:23.176Z,1.80
2023-07-18T17:25:24.655Z,1.65
2023-07-18T17:30:28.172Z,1.58
2023-07-18T17:35:29.840Z,1.77
2023-07-18T17:40:30.983Z,1.60
2023-07-18T17:45:32.382Z,1.67
2023-07-18T17:50:33.864Z,1.65
2023-07-18T17:55:35.032Z,1.60
2023-07-18T18:00:36.356Z,1.77
2023-07-18T18:05:45.809Z,1.58
2023-07-18T18:10:48.164Z,2.45
2023-07-18T18:16:06.046Z,1.50
2023-07-18T18:21:09.309Z,1.70
2023-07-18T18:26:10.650Z,1.60
2023-07-18T18:31:11.809Z,1.73
2023-07-18T18:36:13.170Z,1.58
2023-07-18T18:41:14.813Z,1.70
2023-07-18T18:46:16.453Z,2.63
2023-07-18T18:51:17.992Z,2.50
2023-07-18T18:56:19.575Z,2.15
2023-07-18T19:01:21.107Z,1.85
2023-07-18T19:06:22.743Z,1.50
2023-07-18T19:11:24.253Z,1.60
2023-07-18T19:16:38.868Z,1.65
2023-07-18T19:21:41.222Z,1.75
2023-07-18T19:26:42.882Z,1.60
2023-07-18T19:31:44.201Z,1.55
2023-07-18T19:36:45.451Z,2.00
2023-07-18T19:41:49.650Z,1.95
2023-07-18T19:46:51.515Z,2.08
2023-07-18T19:51:53.663Z,1.73
2023-07-18T19:56:55.001Z,1.80
2023-07-18T20:01:56.387Z,1.73
2023-07-18T20:06:57.546Z,1.52
2023-07-18T20:11:58.697Z,1.95
2023-07-18T20:16:59.901Z,1.27
2023-07-18T20:22:01.077Z,1.40
2023-07-18T20:27:02.832Z,1.40
2023-07-18T20:32:04.500Z,1.67
2023-07-18T20:37:06.785Z,1.52
2023-07-18T20:42:08.118Z,1.33
2023-07-18T20:47:09.580Z,1.63
2023-07-18T20:52:10.744Z,1.40
2023-07-18T20:57:11.906Z,1.30
2023-07-18T21:02:13.726Z,1.83
2023-07-18T21:07:15.046Z,1.80
2023-07-18T21:12:17.142Z,1.50
2023-07-18T21:17:18.566Z,1.10
2023-07-18T21:22:19.724Z,1.58
2023-07-18T21:27:21.057Z,1.80
2023-07-18T21:32:22.454Z,1.52
2023-07-18T21:37:24.370Z,1.40
2023-07-18T21:42:25.997Z,1.85
2023-07-18T21:47:27.395Z,1.30
2023-07-18T21:52:28.880Z,2.10
2023-07-18T21:57:30.123Z,1.85
2023-07-18T22:02:35.478Z,1.80
2023-07-18T22:07:36.665Z,6.55
2023-07-18T22:12:38.072Z,2.72
2023-07-18T22:17:42.002Z,2.40
2023-07-18T22:22:43.416Z,1.65
2023-07-18T22:27:44.803Z,1.70
2023-07-18T22:32:46.122Z,1.35
2023-07-18T22:37:47.573Z,1.60
2023-07-18T22:42:48.866Z,1.60
2023-07-18T22:47:50.299Z,1.80
2023-07-18T22:52:51.539Z,1.55
2023-07-18T22:57:52.700Z,1.65
2023-07-18T23:02:54.180Z,2.00
2023-07-18T23:07:55.633Z,1.83
2023-07-18T23:12:58.483Z,1.73
2023-07-18T23:17:59.877Z,1.92
2023-07-18T23:23:02.591Z,2.08
2023-07-18T23:28:05.106Z,1.75
2023-07-18T23:33:06.472Z,1.90
2023-07-18T23:38:08.083Z,2.10
2023-07-18T23:43:09.667Z,1.90
2023-07-18T23:48:11.168Z,2.70
2023-07-18T23:53:12.603Z,2.65
2023-07-18T23:58:14.293Z,2.25
